sensor_id;sensor_type;location;lat;lon;timestamp;temperature;humidity
76787;DHT22;65739;51.482;5.702;2023-05-29T00:00:14;13.00;99.90
76787;DHT22;65739;51.482;5.702;2023-05-29T00:02:43;12.90;99.90
76787;DHT22;65739;51.482;5.702;2023-05-29T00:05:10;12.90;99.90
76787;DHT22;65739;51.482;5.702;2023-05-29T00:07:37;12.90;99.90
76787;DHT22;65739;51.482;5.702;2023-05-29T00:10:03;12.80;99.90
76787;DHT22;65739;51.482;5.702;2023-05-29T00:12:29;12.70;99.90
76787;DHT22;65739;51.482;5.702;2023-05-29T00:14:54;12.70;99.90
76787;DHT22;65739;51.482;5.702;2023-05-29T00:17:20;12.70;99.90
76787;DHT22;65739;51.482;5.702;2023-05-29T00:19:46;12.70;99.90
76787;DHT22;65739;51.482;5.702;2023-05-29T00:22:12;12.70;99.90
76787;DHT22;65739;51.482;5.702;2023-05-29T00:24:38;12.60;99.90
76787;DHT22;65739;51.482;5.702;2023-05-29T00:27:03;12.60;99.90
76787;DHT22;65739;51.482;5.702;2023-05-29T00:29:29;12.60;99.90
76787;DHT22;65739;51.482;5.702;2023-05-29T00:31:55;12.50;99.90
76787;DHT22;65739;51.482;5.702;2023-05-29T00:34:22;12.60;99.90
76787;DHT22;65739;51.482;5.702;2023-05-29T00:36:48;12.50;99.90
76787;DHT22;65739;51.482;5.702;2023-05-29T00:39:14;12.60;99.90
76787;DHT22;65739;51.482;5.702;2023-05-29T00:41:40;12.40;99.90
76787;DHT22;65739;51.482;5.702;2023-05-29T00:44:06;12.50;99.90
76787;DHT22;65739;51.482;5.702;2023-05-29T00:46:32;12.40;99.90
76787;DHT22;65739;51.482;5.702;2023-05-29T00:48:59;12.30;99.90
76787;DHT22;65739;51.482;5.702;2023-05-29T00:51:26;12.10;99.90
76787;DHT22;65739;51.482;5.702;2023-05-29T00:53:53;12.10;99.90
76787;DHT22;65739;51.482;5.702;2023-05-29T00:56:20;12.10;99.90
76787;DHT22;65739;51.482;5.702;2023-05-29T00:58:50;12.00;99.90
76787;DHT22;65739;51.482;5.702;2023-05-29T01:01:17;11.90;99.90
76787;DHT22;65739;51.482;5.702;2023-05-29T01:03:43;11.90;99.90
76787;DHT22;65739;51.482;5.702;2023-05-29T01:06:10;11.80;99.90
76787;DHT22;65739;51.482;5.702;2023-05-29T01:08:36;11.70;99.90
76787;DHT22;65739;51.482;5.702;2023-05-29T01:11:12;11.70;99.90
76787;DHT22;65739;51.482;5.702;2023-05-29T01:13:44;11.70;99.90
76787;DHT22;65739;51.482;5.702;2023-05-29T01:16:16;11.70;99.90
76787;DHT22;65739;51.482;5.702;2023-05-29T01:19:05;11.60;99.90
76787;DHT22;65739;51.482;5.702;2023-05-29T01:21:59;11.50;99.90
76787;DHT22;65739;51.482;5.702;2023-05-29T01:27:40;11.40;99.90
76787;DHT22;65739;51.482;5.702;2023-05-29T01:30:08;11.40;99.90
76787;DHT22;65739;51.482;5.702;2023-05-29T01:32:34;11.40;99.90
76787;DHT22;65739;51.482;5.702;2023-05-29T01:35:00;11.20;99.90
76787;DHT22;65739;51.482;5.702;2023-05-29T01:37:26;11.20;99.90
76787;DHT22;65739;51.482;5.702;2023-05-29T01:39:53;11.10;99.90
76787;DHT22;65739;51.482;5.702;2023-05-29T01:42:19;11.10;99.90
76787;DHT22;65739;51.482;5.702;2023-05-29T01:44:45;11.10;99.90
76787;DHT22;65739;51.482;5.702;2023-05-29T01:47:12;11.00;99.90
76787;DHT22;65739;51.482;5.702;2023-05-29T01:49:39;11.00;99.90
76787;DHT22;65739;51.482;5.702;2023-05-29T01:52:05;10.90;99.90
76787;DHT22;65739;51.482;5.702;2023-05-29T01:54:31;10.90;99.90
76787;DHT22;65739;51.482;5.702;2023-05-29T01:57:00;10.90;99.90
76787;DHT22;65739;51.482;5.702;2023-05-29T01:59:28;10.90;99.90
76787;DHT22;65739;51.482;5.702;2023-05-29T02:01:54;10.80;99.90
76787;DHT22;65739;51.482;5.702;2023-05-29T02:04:19;10.80;99.90
76787;DHT22;65739;51.482;5.702;2023-05-29T02:06:45;10.80;99.90
76787;DHT22;65739;51.482;5.702;2023-05-29T02:09:10;10.80;99.90
76787;DHT22;65739;51.482;5.702;2023-05-29T02:11:36;10.70;99.90
76787;DHT22;65739;51.482;5.702;2023-05-29T02:14:02;10.60;99.90
76787;DHT22;65739;51.482;5.702;2023-05-29T02:16:30;10.60;99.90
76787;DHT22;65739;51.482;5.702;2023-05-29T02:18:59;10.60;99.90
76787;DHT22;65739;51.482;5.702;2023-05-29T02:21:25;10.50;99.90
76787;DHT22;65739;51.482;5.702;2023-05-29T02:23:51;10.50;99.90
76787;DHT22;65739;51.482;5.702;2023-05-29T02:26:16;10.50;99.90
76787;DHT22;65739;51.482;5.702;2023-05-29T02:28:42;10.50;99.90
76787;DHT22;65739;51.482;5.702;2023-05-29T02:31:07;10.50;99.90
76787;DHT22;65739;51.482;5.702;2023-05-29T02:33:33;10.40;99.90
76787;DHT22;65739;51.482;5.702;2023-05-29T02:35:58;10.40;99.90
76787;DHT22;65739;51.482;5.702;2023-05-29T02:38:24;10.30;99.90
76787;DHT22;65739;51.482;5.702;2023-05-29T02:40:50;10.30;99.90
76787;DHT22;65739;51.482;5.702;2023-05-29T02:43:15;10.30;99.90
76787;DHT22;65739;51.482;5.702;2023-05-29T02:45:41;10.30;99.90
76787;DHT22;65739;51.482;5.702;2023-05-29T02:48:06;10.20;99.90
76787;DHT22;65739;51.482;5.702;2023-05-29T02:50:33;10.30;99.90
76787;DHT22;65739;51.482;5.702;2023-05-29T02:52:58;10.30;99.90
76787;DHT22;65739;51.482;5.702;2023-05-29T02:55:24;10.20;99.90
76787;DHT22;65739;51.482;5.702;2023-05-29T02:57:50;10.20;99.90
76787;DHT22;65739;51.482;5.702;2023-05-29T03:00:18;10.10;99.90
76787;DHT22;65739;51.482;5.702;2023-05-29T03:02:44;10.00;99.90
76787;DHT22;65739;51.482;5.702;2023-05-29T03:05:09;10.00;99.90
76787;DHT22;65739;51.482;5.702;2023-05-29T03:07:35;10.00;99.90
76787;DHT22;65739;51.482;5.702;2023-05-29T03:10:01;10.00;99.90
76787;DHT22;65739;51.482;5.702;2023-05-29T03:12:29;10.00;99.90
76787;DHT22;65739;51.482;5.702;2023-05-29T03:14:55;10.00;99.90
76787;DHT22;65739;51.482;5.702;2023-05-29T03:17:21;9.90;99.90
76787;DHT22;65739;51.482;5.702;2023-05-29T03:19:47;9.90;99.90
76787;DHT22;65739;51.482;5.702;2023-05-29T03:22:13;10.00;99.90
76787;DHT22;65739;51.482;5.702;2023-05-29T03:24:38;9.90;99.90
76787;DHT22;65739;51.482;5.702;2023-05-29T03:27:04;9.90;99.90
76787;DHT22;65739;51.482;5.702;2023-05-29T03:29:31;9.90;99.90
76787;DHT22;65739;51.482;5.702;2023-05-29T03:31:57;9.90;99.90
76787;DHT22;65739;51.482;5.702;2023-05-29T03:34:23;9.80;99.90
76787;DHT22;65739;51.482;5.702;2023-05-29T03:36:48;9.80;99.90
76787;DHT22;65739;51.482;5.702;2023-05-29T03:39:14;9.80;99.90
76787;DHT22;65739;51.482;5.702;2023-05-29T03:41:40;9.90;99.90
76787;DHT22;65739;51.482;5.702;2023-05-29T03:44:06;9.80;99.90
76787;DHT22;65739;51.482;5.702;2023-05-29T03:46:31;9.80;99.90
76787;DHT22;65739;51.482;5.702;2023-05-29T03:48:57;9.80;99.90
76787;DHT22;65739;51.482;5.702;2023-05-29T03:51:23;9.70;99.90
76787;DHT22;65739;51.482;5.702;2023-05-29T03:53:48;9.80;99.90
76787;DHT22;65739;51.482;5.702;2023-05-29T03:56:14;9.80;99.90
76787;DHT22;65739;51.482;5.702;2023-05-29T03:58:40;9.80;99.90
76787;DHT22;65739;51.482;5.702;2023-05-29T04:01:06;9.80;99.90
76787;DHT22;65739;51.482;5.702;2023-05-29T04:03:31;9.80;99.90
76787;DHT22;65739;51.482;5.702;2023-05-29T04:05:57;9.80;99.90
76787;DHT22;65739;51.482;5.702;2023-05-29T04:08:23;9.80;99.90
76787;DHT22;65739;51.482;5.702;2023-05-29T04:10:49;9.80;99.90
76787;DHT22;65739;51.482;5.702;2023-05-29T04:13:14;9.80;99.90
76787;DHT22;65739;51.482;5.702;2023-05-29T04:15:40;9.80;99.90
76787;DHT22;65739;51.482;5.702;2023-05-29T04:18:13;9.90;99.90
76787;DHT22;65739;51.482;5.702;2023-05-29T04:20:42;9.80;99.90
76787;DHT22;65739;51.482;5.702;2023-05-29T04:23:11;9.80;99.90
76787;DHT22;65739;51.482;5.702;2023-05-29T04:25:36;9.80;99.90
76787;DHT22;65739;51.482;5.702;2023-05-29T04:28:02;9.90;99.90
76787;DHT22;65739;51.482;5.702;2023-05-29T04:30:28;9.90;99.90
76787;DHT22;65739;51.482;5.702;2023-05-29T04:32:54;10.00;99.90
76787;DHT22;65739;51.482;5.702;2023-05-29T04:35:20;10.00;99.90
76787;DHT22;65739;51.482;5.702;2023-05-29T04:37:47;10.00;99.90
76787;DHT22;65739;51.482;5.702;2023-05-29T04:40:13;10.00;99.90
76787;DHT22;65739;51.482;5.702;2023-05-29T04:42:43;10.10;99.90
76787;DHT22;65739;51.482;5.702;2023-05-29T04:45:11;10.10;99.90
76787;DHT22;65739;51.482;5.702;2023-05-29T04:47:37;10.20;99.90
76787;DHT22;65739;51.482;5.702;2023-05-29T04:50:18;10.20;99.90
76787;DHT22;65739;51.482;5.702;2023-05-29T04:52:43;10.20;99.90
76787;DHT22;65739;51.482;5.702;2023-05-29T04:55:09;10.20;99.90
76787;DHT22;65739;51.482;5.702;2023-05-29T04:57:38;10.20;99.90
76787;DHT22;65739;51.482;5.702;2023-05-29T05:00:04;10.30;99.90
76787;DHT22;65739;51.482;5.702;2023-05-29T05:02:34;10.40;99.90
76787;DHT22;65739;51.482;5.702;2023-05-29T05:05:00;10.40;99.90
76787;DHT22;65739;51.482;5.702;2023-05-29T05:07:26;10.40;99.90
76787;DHT22;65739;51.482;5.702;2023-05-29T05:09:55;10.50;99.90
76787;DHT22;65739;51.482;5.702;2023-05-29T05:12:20;10.50;99.90
76787;DHT22;65739;51.482;5.702;2023-05-29T05:14:46;10.50;99.90
76787;DHT22;65739;51.482;5.702;2023-05-29T05:17:12;10.60;99.90
76787;DHT22;65739;51.482;5.702;2023-05-29T05:19:37;10.70;99.90
76787;DHT22;65739;51.482;5.702;2023-05-29T05:22:03;10.80;99.90
76787;DHT22;65739;51.482;5.702;2023-05-29T05:24:29;10.80;99.90
76787;DHT22;65739;51.482;5.702;2023-05-29T05:26:54;11.00;99.90
76787;DHT22;65739;51.482;5.702;2023-05-29T05:29:20;10.90;99.90
76787;DHT22;65739;51.482;5.702;2023-05-29T05:31:45;11.00;99.90
76787;DHT22;65739;51.482;5.702;2023-05-29T05:34:11;11.20;99.90
76787;DHT22;65739;51.482;5.702;2023-05-29T05:36:37;11.30;99.90
76787;DHT22;65739;51.482;5.702;2023-05-29T05:39:03;11.30;99.90
76787;DHT22;65739;51.482;5.702;2023-05-29T05:41:28;11.30;99.90
76787;DHT22;65739;51.482;5.702;2023-05-29T05:43:54;11.50;99.90
76787;DHT22;65739;51.482;5.702;2023-05-29T05:46:19;11.50;99.90
76787;DHT22;65739;51.482;5.702;2023-05-29T05:48:45;11.60;99.90
76787;DHT22;65739;51.482;5.702;2023-05-29T05:51:11;11.60;99.90
76787;DHT22;65739;51.482;5.702;2023-05-29T05:53:37;11.70;99.90
76787;DHT22;65739;51.482;5.702;2023-05-29T05:56:03;11.80;99.90
76787;DHT22;65739;51.482;5.702;2023-05-29T05:58:29;11.90;99.90
76787;DHT22;65739;51.482;5.702;2023-05-29T06:00:54;12.00;99.90
76787;DHT22;65739;51.482;5.702;2023-05-29T06:03:20;12.10;99.90
76787;DHT22;65739;51.482;5.702;2023-05-29T06:05:46;12.10;99.90
76787;DHT22;65739;51.482;5.702;2023-05-29T06:08:12;12.10;99.90
76787;DHT22;65739;51.482;5.702;2023-05-29T06:10:38;12.20;99.90
76787;DHT22;65739;51.482;5.702;2023-05-29T06:13:03;12.30;99.90
76787;DHT22;65739;51.482;5.702;2023-05-29T06:15:29;12.20;99.90
76787;DHT22;65739;51.482;5.702;2023-05-29T06:17:55;12.20;99.90
76787;DHT22;65739;51.482;5.702;2023-05-29T06:20:21;12.10;99.90
76787;DHT22;65739;51.482;5.702;2023-05-29T06:22:46;12.30;99.90
76787;DHT22;65739;51.482;5.702;2023-05-29T06:25:19;12.30;99.90
76787;DHT22;65739;51.482;5.702;2023-05-29T06:27:45;12.40;99.90
76787;DHT22;65739;51.482;5.702;2023-05-29T06:30:12;12.40;99.90
76787;DHT22;65739;51.482;5.702;2023-05-29T06:32:37;12.50;99.90
76787;DHT22;65739;51.482;5.702;2023-05-29T06:35:03;12.60;99.90
76787;DHT22;65739;51.482;5.702;2023-05-29T06:37:29;12.50;99.90
76787;DHT22;65739;51.482;5.702;2023-05-29T06:39:55;12.50;99.90
76787;DHT22;65739;51.482;5.702;2023-05-29T06:42:20;12.50;99.90
76787;DHT22;65739;51.482;5.702;2023-05-29T06:44:52;12.60;99.90
76787;DHT22;65739;51.482;5.702;2023-05-29T06:47:20;12.60;99.90
76787;DHT22;65739;51.482;5.702;2023-05-29T06:49:47;12.70;99.90
76787;DHT22;65739;51.482;5.702;2023-05-29T06:52:13;12.70;99.90
76787;DHT22;65739;51.482;5.702;2023-05-29T06:54:39;12.80;99.90
76787;DHT22;65739;51.482;5.702;2023-05-29T06:57:07;13.00;99.90
76787;DHT22;65739;51.482;5.702;2023-05-29T06:59:33;13.20;99.90
76787;DHT22;65739;51.482;5.702;2023-05-29T07:01:58;13.20;99.90
76787;DHT22;65739;51.482;5.702;2023-05-29T07:04:24;13.30;99.90
76787;DHT22;65739;51.482;5.702;2023-05-29T07:10:40;13.30;99.90
76787;DHT22;65739;51.482;5.702;2023-05-29T07:16:21;13.40;99.90
76787;DHT22;65739;51.482;5.702;2023-05-29T07:22:17;13.60;99.90
76787;DHT22;65739;51.482;5.702;2023-05-29T07:24:52;13.60;99.90
76787;DHT22;65739;51.482;5.702;2023-05-29T07:27:17;13.70;99.90
76787;DHT22;65739;51.482;5.702;2023-05-29T07:33:34;13.70;99.90
76787;DHT22;65739;51.482;5.702;2023-05-29T07:36:14;14.00;99.90
76787;DHT22;65739;51.482;5.702;2023-05-29T07:38:40;14.20;99.90
76787;DHT22;65739;51.482;5.702;2023-05-29T07:41:05;14.30;99.90
76787;DHT22;65739;51.482;5.702;2023-05-29T07:43:31;14.50;99.90
76787;DHT22;65739;51.482;5.702;2023-05-29T07:45:57;14.50;99.90
76787;DHT22;65739;51.482;5.702;2023-05-29T07:48:24;14.50;99.90
76787;DHT22;65739;51.482;5.702;2023-05-29T07:50:50;14.30;99.90
76787;DHT22;65739;51.482;5.702;2023-05-29T07:53:17;14.60;99.90
76787;DHT22;65739;51.482;5.702;2023-05-29T07:55:43;14.60;99.90
76787;DHT22;65739;51.482;5.702;2023-05-29T07:58:08;14.90;99.90
76787;DHT22;65739;51.482;5.702;2023-05-29T08:00:44;14.90;99.90
76787;DHT22;65739;51.482;5.702;2023-05-29T08:03:16;15.00;99.90
76787;DHT22;65739;51.482;5.702;2023-05-29T08:05:42;15.30;99.90
76787;DHT22;65739;51.482;5.702;2023-05-29T08:08:07;15.50;99.90
76787;DHT22;65739;51.482;5.702;2023-05-29T08:10:33;15.60;99.90
76787;DHT22;65739;51.482;5.702;2023-05-29T08:12:58;15.80;99.90
76787;DHT22;65739;51.482;5.702;2023-05-29T08:15:24;15.60;99.90
76787;DHT22;65739;51.482;5.702;2023-05-29T08:17:51;15.80;99.90
76787;DHT22;65739;51.482;5.702;2023-05-29T08:20:17;16.00;99.90
76787;DHT22;65739;51.482;5.702;2023-05-29T08:22:43;16.10;99.90
76787;DHT22;65739;51.482;5.702;2023-05-29T08:25:10;16.30;99.90
76787;DHT22;65739;51.482;5.702;2023-05-29T08:27:36;16.30;99.90
76787;DHT22;65739;51.482;5.702;2023-05-29T08:30:02;16.30;99.90
76787;DHT22;65739;51.482;5.702;2023-05-29T08:32:30;16.20;99.90
76787;DHT22;65739;51.482;5.702;2023-05-29T08:34:56;16.60;99.90
76787;DHT22;65739;51.482;5.702;2023-05-29T08:37:22;16.70;99.90
76787;DHT22;65739;51.482;5.702;2023-05-29T08:39:52;16.70;99.90
76787;DHT22;65739;51.482;5.702;2023-05-29T08:42:29;16.70;99.90
76787;DHT22;65739;51.482;5.702;2023-05-29T08:45:03;17.00;99.90
76787;DHT22;65739;51.482;5.702;2023-05-29T08:47:36;17.20;99.90
76787;DHT22;65739;51.482;5.702;2023-05-29T08:50:04;17.30;99.90
76787;DHT22;65739;51.482;5.702;2023-05-29T08:52:37;17.20;99.90
76787;DHT22;65739;51.482;5.702;2023-05-29T08:55:05;17.20;99.90
76787;DHT22;65739;51.482;5.702;2023-05-29T08:57:30;17.40;99.90
76787;DHT22;65739;51.482;5.702;2023-05-29T08:59:59;17.30;99.90
76787;DHT22;65739;51.482;5.702;2023-05-29T09:02:25;17.20;99.90
76787;DHT22;65739;51.482;5.702;2023-05-29T09:04:52;17.30;99.90
76787;DHT22;65739;51.482;5.702;2023-05-29T09:07:20;17.10;99.90
76787;DHT22;65739;51.482;5.702;2023-05-29T09:09:47;17.30;99.90
76787;DHT22;65739;51.482;5.702;2023-05-29T09:12:13;17.30;99.90
76787;DHT22;65739;51.482;5.702;2023-05-29T09:14:41;17.30;99.90
76787;DHT22;65739;51.482;5.702;2023-05-29T09:17:09;17.50;99.90
76787;DHT22;65739;51.482;5.702;2023-05-29T09:19:37;17.60;99.90
76787;DHT22;65739;51.482;5.702;2023-05-29T09:22:06;17.90;99.90
76787;DHT22;65739;51.482;5.702;2023-05-29T09:24:33;17.90;99.90
76787;DHT22;65739;51.482;5.702;2023-05-29T09:27:02;18.30;99.90
76787;DHT22;65739;51.482;5.702;2023-05-29T09:29:33;18.40;99.90
76787;DHT22;65739;51.482;5.702;2023-05-29T09:32:00;18.40;99.90
76787;DHT22;65739;51.482;5.702;2023-05-29T09:34:26;18.40;99.90
76787;DHT22;65739;51.482;5.702;2023-05-29T09:37:04;18.70;99.90
76787;DHT22;65739;51.482;5.702;2023-05-29T09:42:09;19.10;99.90
76787;DHT22;65739;51.482;5.702;2023-05-29T09:44:35;19.30;99.90
76787;DHT22;65739;51.482;5.702;2023-05-29T09:47:00;19.50;99.90
76787;DHT22;65739;51.482;5.702;2023-05-29T09:49:26;19.40;99.90
76787;DHT22;65739;51.482;5.702;2023-05-29T09:51:56;19.40;99.90
76787;DHT22;65739;51.482;5.702;2023-05-29T09:54:22;19.30;99.90
76787;DHT22;65739;51.482;5.702;2023-05-29T09:56:50;19.50;99.90
76787;DHT22;65739;51.482;5.702;2023-05-29T09:59:16;19.60;99.90
76787;DHT22;65739;51.482;5.702;2023-05-29T10:01:43;19.50;99.90
76787;DHT22;65739;51.482;5.702;2023-05-29T10:04:10;19.90;99.90
76787;DHT22;65739;51.482;5.702;2023-05-29T10:06:43;19.90;99.90
76787;DHT22;65739;51.482;5.702;2023-05-29T10:09:12;20.20;99.90
76787;DHT22;65739;51.482;5.702;2023-05-29T10:11:42;20.50;99.90
76787;DHT22;65739;51.482;5.702;2023-05-29T10:14:10;20.30;99.90
76787;DHT22;65739;51.482;5.702;2023-05-29T10:16:41;19.80;99.90
76787;DHT22;65739;51.482;5.702;2023-05-29T10:19:16;20.10;99.90
76787;DHT22;65739;51.482;5.702;2023-05-29T10:21:44;19.90;99.90
76787;DHT22;65739;51.482;5.702;2023-05-29T10:24:11;20.10;99.90
76787;DHT22;65739;51.482;5.702;2023-05-29T10:26:40;20.10;99.90
76787;DHT22;65739;51.482;5.702;2023-05-29T10:32:29;20.30;99.90
76787;DHT22;65739;51.482;5.702;2023-05-29T10:37:47;20.80;99.90
76787;DHT22;65739;51.482;5.702;2023-05-29T10:40:15;20.70;99.90
76787;DHT22;65739;51.482;5.702;2023-05-29T10:42:46;20.70;99.90
76787;DHT22;65739;51.482;5.702;2023-05-29T10:50:45;20.70;99.90
76787;DHT22;65739;51.482;5.702;2023-05-29T10:53:16;20.80;99.90
76787;DHT22;65739;51.482;5.702;2023-05-29T10:55:42;21.10;99.90
76787;DHT22;65739;51.482;5.702;2023-05-29T10:58:20;21.40;99.90
76787;DHT22;65739;51.482;5.702;2023-05-29T11:00:47;21.70;99.90
76787;DHT22;65739;51.482;5.702;2023-05-29T11:06:06;21.50;99.90
76787;DHT22;65739;51.482;5.702;2023-05-29T11:08:43;21.50;99.90
76787;DHT22;65739;51.482;5.702;2023-05-29T11:13:39;21.80;99.90
76787;DHT22;65739;51.482;5.702;2023-05-29T11:18:51;21.70;99.90
76787;DHT22;65739;51.482;5.702;2023-05-29T11:24:21;21.90;99.90
76787;DHT22;65739;51.482;5.702;2023-05-29T11:26:47;21.90;99.90
76787;DHT22;65739;51.482;5.702;2023-05-29T11:29:13;21.80;99.90
76787;DHT22;65739;51.482;5.702;2023-05-29T11:31:40;21.50;99.90
76787;DHT22;65739;51.482;5.702;2023-05-29T11:34:09;21.40;99.90
76787;DHT22;65739;51.482;5.702;2023-05-29T11:36:39;21.30;99.90
76787;DHT22;65739;51.482;5.702;2023-05-29T11:39:05;21.10;99.90
76787;DHT22;65739;51.482;5.702;2023-05-29T11:41:30;21.30;99.90
76787;DHT22;65739;51.482;5.702;2023-05-29T11:44:01;21.40;99.90
76787;DHT22;65739;51.482;5.702;2023-05-29T11:46:28;21.40;99.90
76787;DHT22;65739;51.482;5.702;2023-05-29T11:48:56;21.70;99.90
76787;DHT22;65739;51.482;5.702;2023-05-29T11:51:22;22.20;99.90
76787;DHT22;65739;51.482;5.702;2023-05-29T11:53:48;22.30;99.90
76787;DHT22;65739;51.482;5.702;2023-05-29T11:56:14;22.60;99.90
76787;DHT22;65739;51.482;5.702;2023-05-29T11:58:40;22.70;99.90
76787;DHT22;65739;51.482;5.702;2023-05-29T12:01:07;22.70;99.90
76787;DHT22;65739;51.482;5.702;2023-05-29T12:03:40;22.50;99.90
76787;DHT22;65739;51.482;5.702;2023-05-29T12:06:06;22.20;99.90
76787;DHT22;65739;51.482;5.702;2023-05-29T12:08:33;22.10;99.90
76787;DHT22;65739;51.482;5.702;2023-05-29T12:10:58;21.90;99.90
76787;DHT22;65739;51.482;5.702;2023-05-29T12:13:24;21.60;99.90
76787;DHT22;65739;51.482;5.702;2023-05-29T12:15:52;21.80;99.90
76787;DHT22;65739;51.482;5.702;2023-05-29T12:18:18;22.20;99.90
76787;DHT22;65739;51.482;5.702;2023-05-29T12:20:44;22.00;99.90
76787;DHT22;65739;51.482;5.702;2023-05-29T12:23:09;22.10;99.90
76787;DHT22;65739;51.482;5.702;2023-05-29T12:25:37;22.10;99.90
76787;DHT22;65739;51.482;5.702;2023-05-29T12:28:03;22.20;99.90
76787;DHT22;65739;51.482;5.702;2023-05-29T12:30:30;22.20;99.90
76787;DHT22;65739;51.482;5.702;2023-05-29T12:32:56;22.10;99.90
76787;DHT22;65739;51.482;5.702;2023-05-29T12:35:23;21.90;99.90
76787;DHT22;65739;51.482;5.702;2023-05-29T12:37:56;21.70;99.90
76787;DHT22;65739;51.482;5.702;2023-05-29T12:40:23;21.70;99.90
76787;DHT22;65739;51.482;5.702;2023-05-29T12:42:58;21.50;99.90
76787;DHT22;65739;51.482;5.702;2023-05-29T12:45:25;21.80;99.90
76787;DHT22;65739;51.482;5.702;2023-05-29T12:47:53;22.10;99.90
76787;DHT22;65739;51.482;5.702;2023-05-29T12:50:19;22.30;99.90
76787;DHT22;65739;51.482;5.702;2023-05-29T12:55:21;22.10;99.90
76787;DHT22;65739;51.482;5.702;2023-05-29T12:57:47;22.70;99.90
76787;DHT22;65739;51.482;5.702;2023-05-29T13:00:13;22.70;99.90
76787;DHT22;65739;51.482;5.702;2023-05-29T13:02:39;22.60;99.90
76787;DHT22;65739;51.482;5.702;2023-05-29T13:05:05;22.50;99.90
76787;DHT22;65739;51.482;5.702;2023-05-29T13:07:31;22.20;99.90
76787;DHT22;65739;51.482;5.702;2023-05-29T13:09:57;21.90;99.90
76787;DHT22;65739;51.482;5.702;2023-05-29T13:12:23;22.10;99.90
76787;DHT22;65739;51.482;5.702;2023-05-29T13:14:48;22.10;99.90
76787;DHT22;65739;51.482;5.702;2023-05-29T13:17:14;21.90;99.90
76787;DHT22;65739;51.482;5.702;2023-05-29T13:19:39;21.90;99.90
76787;DHT22;65739;51.482;5.702;2023-05-29T13:22:05;21.90;99.90
76787;DHT22;65739;51.482;5.702;2023-05-29T13:24:31;22.00;99.90
76787;DHT22;65739;51.482;5.702;2023-05-29T13:26:56;22.00;99.90
76787;DHT22;65739;51.482;5.702;2023-05-29T13:29:22;22.00;99.90
76787;DHT22;65739;51.482;5.702;2023-05-29T13:31:47;22.60;99.90
76787;DHT22;65739;51.482;5.702;2023-05-29T13:34:13;22.20;99.90
76787;DHT22;65739;51.482;5.702;2023-05-29T13:36:38;22.10;99.90
76787;DHT22;65739;51.482;5.702;2023-05-29T13:39:04;22.00;99.90
76787;DHT22;65739;51.482;5.702;2023-05-29T13:41:30;22.00;99.90
76787;DHT22;65739;51.482;5.702;2023-05-29T13:43:56;22.10;99.90
76787;DHT22;65739;51.482;5.702;2023-05-29T13:46:22;21.70;99.90
76787;DHT22;65739;51.482;5.702;2023-05-29T13:48:48;22.00;99.90
76787;DHT22;65739;51.482;5.702;2023-05-29T13:51:13;22.30;99.90
76787;DHT22;65739;51.482;5.702;2023-05-29T13:53:39;22.20;99.90
76787;DHT22;65739;51.482;5.702;2023-05-29T13:56:05;22.40;99.90
76787;DHT22;65739;51.482;5.702;2023-05-29T13:58:30;22.30;99.90
76787;DHT22;65739;51.482;5.702;2023-05-29T14:00:56;22.10;99.90
76787;DHT22;65739;51.482;5.702;2023-05-29T14:03:21;22.30;99.90
76787;DHT22;65739;51.482;5.702;2023-05-29T14:05:56;22.30;99.90
76787;DHT22;65739;51.482;5.702;2023-05-29T14:08:22;21.90;99.90
76787;DHT22;65739;51.482;5.702;2023-05-29T14:10:47;22.10;99.90
76787;DHT22;65739;51.482;5.702;2023-05-29T14:13:13;22.10;99.70
76787;DHT22;65739;51.482;5.702;2023-05-29T14:15:38;22.30;99.90
76787;DHT22;65739;51.482;5.702;2023-05-29T14:18:04;22.40;99.90
76787;DHT22;65739;51.482;5.702;2023-05-29T14:20:30;22.60;99.40
76787;DHT22;65739;51.482;5.702;2023-05-29T14:22:56;22.60;99.60
76787;DHT22;65739;51.482;5.702;2023-05-29T14:25:21;23.00;99.90
76787;DHT22;65739;51.482;5.702;2023-05-29T14:27:47;22.40;99.00
76787;DHT22;65739;51.482;5.702;2023-05-29T14:30:13;22.50;99.70
76787;DHT22;65739;51.482;5.702;2023-05-29T14:32:38;22.50;98.90
76787;DHT22;65739;51.482;5.702;2023-05-29T14:35:04;23.10;98.70
76787;DHT22;65739;51.482;5.702;2023-05-29T14:37:30;22.70;99.00
76787;DHT22;65739;51.482;5.702;2023-05-29T14:39:55;23.10;99.20
76787;DHT22;65739;51.482;5.702;2023-05-29T14:42:21;23.00;98.20
76787;DHT22;65739;51.482;5.702;2023-05-29T14:44:47;22.90;99.30
76787;DHT22;65739;51.482;5.702;2023-05-29T14:47:12;22.80;98.90
76787;DHT22;65739;51.482;5.702;2023-05-29T14:49:38;22.90;98.60
76787;DHT22;65739;51.482;5.702;2023-05-29T14:52:04;22.90;98.50
76787;DHT22;65739;51.482;5.702;2023-05-29T14:54:30;22.80;97.70
76787;DHT22;65739;51.482;5.702;2023-05-29T14:56:56;22.60;98.20
76787;DHT22;65739;51.482;5.702;2023-05-29T14:59:23;22.60;98.20
76787;DHT22;65739;51.482;5.702;2023-05-29T15:01:49;22.60;98.70
76787;DHT22;65739;51.482;5.702;2023-05-29T15:04:15;22.60;98.10
76787;DHT22;65739;51.482;5.702;2023-05-29T15:06:41;22.40;98.50
76787;DHT22;65739;51.482;5.702;2023-05-29T15:09:07;22.40;98.10
76787;DHT22;65739;51.482;5.702;2023-05-29T15:11:32;22.20;98.60
76787;DHT22;65739;51.482;5.702;2023-05-29T15:13:58;22.50;97.90
76787;DHT22;65739;51.482;5.702;2023-05-29T15:16:24;23.40;97.80
76787;DHT22;65739;51.482;5.702;2023-05-29T15:18:50;23.80;97.10
76787;DHT22;65739;51.482;5.702;2023-05-29T15:21:15;23.80;96.80
76787;DHT22;65739;51.482;5.702;2023-05-29T15:23:41;23.70;97.40
76787;DHT22;65739;51.482;5.702;2023-05-29T15:26:09;23.50;97.40
76787;DHT22;65739;51.482;5.702;2023-05-29T15:28:35;23.40;96.80
76787;DHT22;65739;51.482;5.702;2023-05-29T15:31:01;23.50;96.40
76787;DHT22;65739;51.482;5.702;2023-05-29T15:33:27;23.50;96.70
76787;DHT22;65739;51.482;5.702;2023-05-29T15:35:52;23.30;96.50
76787;DHT22;65739;51.482;5.702;2023-05-29T15:38:18;23.00;97.30
76787;DHT22;65739;51.482;5.702;2023-05-29T15:40:44;23.40;97.20
76787;DHT22;65739;51.482;5.702;2023-05-29T15:43:10;23.70;97.00
76787;DHT22;65739;51.482;5.702;2023-05-29T15:45:36;23.80;96.30
76787;DHT22;65739;51.482;5.702;2023-05-29T15:48:02;23.80;95.80
76787;DHT22;65739;51.482;5.702;2023-05-29T15:50:28;23.90;95.80
76787;DHT22;65739;51.482;5.702;2023-05-29T15:52:53;24.20;95.60
76787;DHT22;65739;51.482;5.702;2023-05-29T15:55:19;24.50;95.40
76787;DHT22;65739;51.482;5.702;2023-05-29T15:57:44;24.90;94.80
76787;DHT22;65739;51.482;5.702;2023-05-29T16:00:11;24.60;94.20
76787;DHT22;65739;51.482;5.702;2023-05-29T16:02:40;24.70;94.60
76787;DHT22;65739;51.482;5.702;2023-05-29T16:05:07;24.50;93.90
76787;DHT22;65739;51.482;5.702;2023-05-29T16:07:33;24.90;94.10
76787;DHT22;65739;51.482;5.702;2023-05-29T16:09:59;24.70;94.10
76787;DHT22;65739;51.482;5.702;2023-05-29T16:12:26;24.90;94.00
76787;DHT22;65739;51.482;5.702;2023-05-29T16:14:51;25.00;93.60